Manteca, California
Current Conditions -  °F | °C
As of 1:55 AM on Sunday 21 Dec 2014 (Local Time) from KSCK Reporting Station
Haze Haze  
Wind Chill: 56°   Ceiling: 2600
Heat Index: 56°   Visibility: 4mi
Dew Point: 54°   Wind: 0mph
Humidity: 93%   Direction: NA
Pressure: 30.25"   Gusts: NA
Location:  37.8°N, 121.23°W
Report Text: KSCK 210955Z AUTO 00000KT 4SM BR OVC026 13/12 A3025 RMK AO2 SLP244 T01330122
Loading
Personal Weather Stations






























Interactive Weather Map New forecast layout! Learn more

10-Day Weather Forecast

Advertisements
Track Severe Weather on mobile